Time;durP1;ratioP1;P1;durP2;ratioP2;P2;SDS_P1;SDS_P2;PMS_P1;PMS_P2;Temp;Humidity;BMP_temperature;BMP_pressure;BME280_temperature;BME280_humidity;BME280_pressure;Samples;Min_cycle;Max_cycle;Signal;HPM_P1;HPM_P2
2022/03/29 00:02:01;;;;;;;20.25;12.05;;;;;;;;;;5076126;28;20411;-76
2022/03/29 00:04:28;;;;;;;15.88;11.30;;;;;;;;;;5075945;28;20024;-76
2022/03/29 00:06:54;;;;;;;17.88;11.35;;;;;;;;;;5081943;28;20368;-75
2022/03/29 00:09:20;;;;;;;20.75;11.68;;;;;;;;;;5087537;28;20048;-76
2022/03/29 00:11:46;;;;;;;22.63;11.20;;;;;;;;;;5074099;28;20023;-76
2022/03/29 00:14:12;;;;;;;16.92;11.43;;;;;;;;;;5079973;28;20714;-76
2022/03/29 00:16:39;;;;;;;18.90;11.73;;;;;;;;;;5083934;28;20028;-76
2022/03/29 00:19:05;;;;;;;19.15;11.60;;;;;;;;;;5085852;28;20806;-76
2022/03/29 00:21:31;;;;;;;20.52;12.70;;;;;;;;;;5081787;28;20502;-75
2022/03/29 00:23:57;;;;;;;19.27;11.90;;;;;;;;;;5077400;28;20032;-76
2022/03/29 00:26:22;;;;;;;21.48;11.93;;;;;;;;;;5087449;28;20110;-77
2022/03/29 00:28:48;;;;;;;22.75;12.10;;;;;;;;;;5085795;28;20506;-76
2022/03/29 00:31:16;;;;;;;21.75;11.85;;;;;;;;;;5076495;28;20017;-75
2022/03/29 00:33:42;;;;;;;17.95;11.93;;;;;;;;;;5081812;28;20077;-75
2022/03/29 00:36:08;;;;;;;19.70;11.57;;;;;;;;;;5082808;28;20036;-76
2022/03/29 00:38:34;;;;;;;24.02;11.80;;;;;;;;;;5089200;28;20028;-75
2022/03/29 00:41:00;;;;;;;24.25;12.15;;;;;;;;;;5072076;28;20023;-76
2022/03/29 00:43:26;;;;;;;20.55;12.68;;;;;;;;;;5080952;28;20036;-76
2022/03/29 00:45:52;;;;;;;25.02;11.80;;;;;;;;;;5081094;28;20386;-75
2022/03/29 00:48:18;;;;;;;19.70;12.10;;;;;;;;;;5076973;28;20024;-76
2022/03/29 00:50:45;;;;;;;22.80;12.43;;;;;;;;;;5079767;28;20470;-75
2022/03/29 00:53:11;;;;;;;18.75;12.52;;;;;;;;;;5079483;28;20058;-76
2022/03/29 00:55:38;;;;;;;21.95;13.30;;;;;;;;;;5076410;28;20031;-75
2022/03/29 00:58:06;;;;;;;25.10;12.85;;;;;;;;;;5082231;28;20109;-76
2022/03/29 01:00:32;;;;;;;21.20;12.85;;;;;;;;;;5079211;28;20685;-76
2022/03/29 01:03:02;;;;;;;20.42;12.57;;;;;;;;;;5081847;28;20466;-75
2022/03/29 01:05:28;;;;;;;18.35;11.90;;;;;;;;;;5080000;28;20036;-75
2022/03/29 01:07:55;;;;;;;23.10;12.27;;;;;;;;;;5081506;28;20035;-75
2022/03/29 01:10:20;;;;;;;17.27;11.38;;;;;;;;;;5076206;28;20503;-74
2022/03/29 01:12:47;;;;;;;20.30;12.77;;;;;;;;;;5073429;28;20025;-75
2022/03/29 01:15:13;;;;;;;20.33;12.32;;;;;;;;;;5078355;28;20036;-75
2022/03/29 01:17:42;;;;;;;20.55;11.43;;;;;;;;;;5079062;28;20028;-75
2022/03/29 01:20:09;;;;;;;18.67;12.05;;;;;;;;;;5081542;28;20036;-75
2022/03/29 01:22:36;;;;;;;19.95;11.35;;;;;;;;;;5088062;28;20056;-75
2022/03/29 01:25:02;;;;;;;20.63;11.95;;;;;;;;;;5077152;28;20025;-76
2022/03/29 01:27:31;;;;;;;18.40;11.80;;;;;;;;;;5083157;28;20065;-76
2022/03/29 01:29:59;;;;;;;18.38;11.85;;;;;;;;;;5078679;28;20033;-76
2022/03/29 01:32:29;;;;;;;22.35;12.45;;;;;;;;;;5084275;28;20031;-76
2022/03/29 01:34:56;;;;;;;19.27;12.10;;;;;;;;;;5077717;28;20514;-75
2022/03/29 01:37:22;;;;;;;20.23;12.27;;;;;;;;;;5084162;28;20382;-75
2022/03/29 01:39:48;;;;;;;19.80;11.63;;;;;;;;;;5073674;28;20087;-75
2022/03/29 01:42:13;;;;;;;21.08;12.30;;;;;;;;;;5081692;28;20035;-76
2022/03/29 01:44:39;;;;;;;17.42;11.63;;;;;;;;;;5078893;28;20499;-75
2022/03/29 01:47:06;;;;;;;19.33;11.93;;;;;;;;;;5082250;28;20064;-75
2022/03/29 01:49:32;;;;;;;22.58;12.70;;;;;;;;;;5081536;28;20032;-75
2022/03/29 01:51:58;;;;;;;16.95;11.30;;;;;;;;;;5077809;28;20073;-75
2022/03/29 01:54:24;;;;;;;19.35;12.00;;;;;;;;;;5078830;28;20037;-75
2022/03/29 01:56:50;;;;;;;19.48;12.65;;;;;;;;;;5076926;28;20035;-75
2022/03/29 01:59:16;;;;;;;21.45;12.93;;;;;;;;;;5081114;28;20127;-75
2022/03/29 02:01:43;;;;;;;19.58;12.82;;;;;;;;;;5076318;28;20029;-75
2022/03/29 02:04:09;;;;;;;22.23;13.07;;;;;;;;;;5081093;28;20031;-76
2022/03/29 02:06:35;;;;;;;24.50;12.77;;;;;;;;;;5087120;28;20024;-76
2022/03/29 02:09:02;;;;;;;21.25;12.32;;;;;;;;;;5086343;28;20101;-75
2022/03/29 02:11:28;;;;;;;20.80;12.40;;;;;;;;;;5078967;28;20482;-75
2022/03/29 02:13:55;;;;;;;22.67;13.07;;;;;;;;;;5084653;28;20669;-75
2022/03/29 02:16:20;;;;;;;21.85;13.07;;;;;;;;;;5085051;28;20032;-75
2022/03/29 02:18:46;;;;;;;21.77;13.05;;;;;;;;;;5077635;28;20410;-75
2022/03/29 02:21:16;;;;;;;24.10;13.73;;;;;;;;;;5085973;28;20035;-75
2022/03/29 02:23:42;;;;;;;24.52;13.30;;;;;;;;;;5074513;28;20032;-75
2022/03/29 02:26:08;;;;;;;20.23;13.20;;;;;;;;;;5077541;28;20041;-75
2022/03/29 02:28:34;;;;;;;22.33;13.38;;;;;;;;;;5083872;28;20425;-76
2022/03/29 02:31:00;;;;;;;23.08;13.82;;;;;;;;;;5079731;28;20020;-75
2022/03/29 02:33:26;;;;;;;20.35;13.23;;;;;;;;;;5086707;28;20028;-76
2022/03/29 02:35:52;;;;;;;24.88;14.13;;;;;;;;;;5078991;28;20048;-75
2022/03/29 02:38:18;;;;;;;29.77;14.98;;;;;;;;;;5073189;28;20215;-76
2022/03/29 02:40:44;;;;;;;21.08;13.95;;;;;;;;;;5077492;28;20713;-76
2022/03/29 02:43:10;;;;;;;20.15;13.23;;;;;;;;;;5084640;28;20390;-76
2022/03/29 02:45:36;;;;;;;21.75;12.98;;;;;;;;;;5083317;28;20036;-75
2022/03/29 02:48:02;;;;;;;25.50;14.10;;;;;;;;;;5084529;28;20035;-75
2022/03/29 02:50:28;;;;;;;23.67;14.00;;;;;;;;;;5080080;28;20016;-76
2022/03/29 02:52:55;;;;;;;22.20;13.82;;;;;;;;;;5074573;28;20025;-75
2022/03/29 02:55:22;;;;;;;24.58;14.45;;;;;;;;;;5088428;28;20030;-75
2022/03/29 02:57:48;;;;;;;23.10;14.65;;;;;;;;;;5084426;28;20016;-76
2022/03/29 03:00:16;;;;;;;24.65;14.15;;;;;;;;;;5085227;28;20181;-76
2022/03/29 03:02:45;;;;;;;22.45;14.20;;;;;;;;;;5081283;28;20086;-76
2022/03/29 03:05:11;;;;;;;21.67;12.57;;;;;;;;;;5082963;28;20062;-75
2022/03/29 03:07:38;;;;;;;24.10;14.48;;;;;;;;;;5077300;28;20403;-75
2022/03/29 03:10:05;;;;;;;22.73;13.60;;;;;;;;;;5087912;28;20027;-76
2022/03/29 03:12:37;;;;;;;24.50;15.18;;;;;;;;;;5083791;28;20028;-75
2022/03/29 03:15:04;;;;;;;27.73;16.02;;;;;;;;;;5073999;28;20016;-76
2022/03/29 03:17:30;;;;;;;25.73;14.65;;;;;;;;;;5080915;28;20082;-76
2022/03/29 03:19:56;;;;;;;24.38;14.55;;;;;;;;;;5079124;28;20032;-76
2022/03/29 03:22:22;;;;;;;24.25;14.73;;;;;;;;;;5074325;28;20034;-76
2022/03/29 03:24:48;;;;;;;23.48;14.82;;;;;;;;;;5074921;28;20051;-76
2022/03/29 03:27:16;;;;;;;26.15;15.23;;;;;;;;;;5086631;28;20023;-76
2022/03/29 03:29:42;;;;;;;27.90;15.27;;;;;;;;;;5083912;28;20020;-76
2022/03/29 03:32:11;;;;;;;22.50;14.13;;;;;;;;;;5079233;28;20727;-76
2022/03/29 03:34:37;;;;;;;25.23;15.27;;;;;;;;;;5078852;28;20024;-76
2022/03/29 03:37:03;;;;;;;24.63;14.88;;;;;;;;;;5075831;28;20063;-76
2022/03/29 03:39:30;;;;;;;25.77;14.15;;;;;;;;;;5071328;28;20052;-76
2022/03/29 03:41:56;;;;;;;29.23;15.38;;;;;;;;;;5083922;28;20475;-76
2022/03/29 03:44:22;;;;;;;27.95;13.95;;;;;;;;;;5080744;28;20035;-76
2022/03/29 03:46:48;;;;;;;25.42;14.63;;;;;;;;;;5077576;28;20084;-76
2022/03/29 03:49:14;;;;;;;29.40;15.35;;;;;;;;;;5079945;28;20036;-76
2022/03/29 03:51:40;;;;;;;25.27;15.63;;;;;;;;;;5076275;28;20020;-76
2022/03/29 03:54:07;;;;;;;31.95;16.20;;;;;;;;;;5082271;28;20020;-76
2022/03/29 03:56:32;;;;;;;27.48;15.88;;;;;;;;;;5087015;28;20032;-76
2022/03/29 03:58:58;;;;;;;28.17;15.43;;;;;;;;;;5079542;28;20025;-76
2022/03/29 04:01:24;;;;;;;29.83;16.23;;;;;;;;;;5078496;28;20025;-76
2022/03/29 04:03:51;;;;;;;24.75;15.88;;;;;;;;;;5075472;28;20024;-76
2022/03/29 04:06:17;;;;;;;27.75;16.90;;;;;;;;;;5080038;28;20081;-76
2022/03/29 04:08:43;;;;;;;28.67;16.77;;;;;;;;;;5085960;28;20437;-76
2022/03/29 04:11:09;;;;;;;26.75;15.90;;;;;;;;;;5078757;28;20028;-75
2022/03/29 04:13:35;;;;;;;27.80;15.75;;;;;;;;;;5090695;28;20077;-76
2022/03/29 04:16:01;;;;;;;30.05;16.83;;;;;;;;;;5091808;28;20452;-76
2022/03/29 04:18:27;;;;;;;29.17;15.93;;;;;;;;;;5084099;28;20032;-76
2022/03/29 04:20:53;;;;;;;30.40;16.20;;;;;;;;;;5077294;28;20024;-76
2022/03/29 04:23:19;;;;;;;31.83;16.92;;;;;;;;;;5077191;28;20074;-76
2022/03/29 04:25:45;;;;;;;32.15;17.17;;;;;;;;;;5083459;28;20109;-77
2022/03/29 04:28:11;;;;;;;30.27;16.65;;;;;;;;;;5086697;28;20025;-76
2022/03/29 04:30:37;;;;;;;30.08;16.75;;;;;;;;;;5080468;28;20496;-76
2022/03/29 04:33:03;;;;;;;30.83;17.38;;;;;;;;;;5081885;28;20021;-76
2022/03/29 04:35:29;;;;;;;29.50;17.48;;;;;;;;;;5082077;28;20020;-76
2022/03/29 04:37:55;;;;;;;30.30;16.83;;;;;;;;;;5082832;28;20379;-76
2022/03/29 04:40:21;;;;;;;30.20;17.08;;;;;;;;;;5081797;28;20031;-77
2022/03/29 04:42:48;;;;;;;30.42;16.77;;;;;;;;;;5084941;28;21812;-76
2022/03/29 04:45:20;;;;;;;30.35;18.02;;;;;;;;;;5082461;28;20043;-76
2022/03/29 04:47:46;;;;;;;29.55;16.83;;;;;;;;;;5079261;28;20021;-76
2022/03/29 04:50:13;;;;;;;30.48;16.88;;;;;;;;;;5084367;28;20077;-79
2022/03/29 04:52:44;;;;;;;32.45;17.30;;;;;;;;;;5077977;28;20039;-78
2022/03/29 04:55:10;;;;;;;30.90;17.77;;;;;;;;;;5073693;28;20040;-79
2022/03/29 04:57:36;;;;;;;30.08;16.75;;;;;;;;;;5076065;28;20040;-73
2022/03/29 05:00:04;;;;;;;31.58;16.85;;;;;;;;;;5084526;28;20024;-74
2022/03/29 05:02:30;;;;;;;31.10;17.08;;;;;;;;;;5086470;28;20028;-72
2022/03/29 05:04:56;;;;;;;28.17;16.50;;;;;;;;;;5083319;28;20032;-70
2022/03/29 05:07:23;;;;;;;35.90;17.23;;;;;;;;;;5082947;28;20012;-71
2022/03/29 05:09:49;;;;;;;30.35;16.83;;;;;;;;;;5075339;28;20048;-71
2022/03/29 05:12:16;;;;;;;28.52;16.85;;;;;;;;;;5082964;28;20038;-71
2022/03/29 05:14:42;;;;;;;26.02;15.95;;;;;;;;;;5090278;28;20032;-72
2022/03/29 05:17:08;;;;;;;26.50;15.13;;;;;;;;;;5081674;28;20043;-74
2022/03/29 05:19:33;;;;;;;28.98;15.38;;;;;;;;;;5075113;28;20032;-73
2022/03/29 05:21:59;;;;;;;29.85;16.15;;;;;;;;;;5076265;28;20043;-73
2022/03/29 05:28:02;;;;;;;34.03;16.42;;;;;;;;;;5069431;28;20519;-72
2022/03/29 05:30:25;;;;;;;34.47;16.35;;;;;;;;;;5083176;28;20044;-73
2022/03/29 05:32:57;;;;;;;30.35;16.45;;;;;;;;;;5082474;28;20108;-72
2022/03/29 05:35:25;;;;;;;;;;;;;;;;;;5072777;28;20024;-72
2022/03/29 05:37:51;;;;;;;35.10;16.10;;;;;;;;;;5079679;28;20362;-73
2022/03/29 05:40:17;;;;;;;34.83;16.95;;;;;;;;;;5087736;28;20085;-73
2022/03/29 05:42:44;;;;;;;32.78;16.50;;;;;;;;;;5074914;28;20119;-72
2022/03/29 05:45:12;;;;;;;33.22;17.05;;;;;;;;;;5083906;28;20467;-73
2022/03/29 05:50:22;;;;;;;37.63;17.40;;;;;;;;;;5088404;28;20084;-72
2022/03/29 05:52:48;;;;;;;35.30;18.05;;;;;;;;;;5078531;28;20036;-73
2022/03/29 05:55:15;;;;;;;31.67;17.45;;;;;;;;;;5086927;28;20395;-73
2022/03/29 05:57:41;;;;;;;32.72;17.33;;;;;;;;;;5080174;28;20035;-72
2022/03/29 06:00:10;;;;;;;34.80;18.00;;;;;;;;;;5080667;28;20032;-73
2022/03/29 06:02:36;;;;;;;35.85;19.25;;;;;;;;;;5089897;28;20028;-72
2022/03/29 06:05:02;;;;;;;33.00;18.58;;;;;;;;;;5074643;28;20029;-71
2022/03/29 06:07:28;;;;;;;32.08;18.48;;;;;;;;;;5079057;28;20028;-76
2022/03/29 06:09:54;;;;;;;34.22;18.48;;;;;;;;;;5085934;28;20055;-74
2022/03/29 06:12:21;;;;;;;33.47;18.88;;;;;;;;;;5077668;28;20031;-71
2022/03/29 06:14:47;;;;;;;34.72;19.08;;;;;;;;;;5087830;28;20370;-71
2022/03/29 06:17:13;;;;;;;41.47;18.67;;;;;;;;;;5081889;28;20032;-71
2022/03/29 06:19:39;;;;;;;33.92;18.33;;;;;;;;;;5077925;28;20031;-74
2022/03/29 06:22:05;;;;;;;34.28;19.10;;;;;;;;;;5073064;28;20098;-71
2022/03/29 06:24:32;;;;;;;31.95;17.60;;;;;;;;;;5087961;28;20461;-71
2022/03/29 06:26:58;;;;;;;35.60;17.77;;;;;;;;;;5083600;28;20028;-70
2022/03/29 06:29:24;;;;;;;35.47;18.45;;;;;;;;;;5070061;28;20030;-71
2022/03/29 06:31:51;;;;;;;33.20;18.50;;;;;;;;;;5082353;28;20027;-71
2022/03/29 06:34:17;;;;;;;36.67;18.77;;;;;;;;;;5081982;28;20115;-71
2022/03/29 06:36:43;;;;;;;41.45;19.23;;;;;;;;;;5083167;28;20024;-71
2022/03/29 06:39:11;;;;;;;37.60;18.75;;;;;;;;;;5088515;28;20023;-71
2022/03/29 06:41:37;;;;;;;37.67;18.63;;;;;;;;;;5088234;28;20044;-71
2022/03/29 06:44:05;;;;;;;30.75;17.92;;;;;;;;;;5089025;28;20398;-71
2022/03/29 06:46:31;;;;;;;35.13;18.15;;;;;;;;;;5088165;28;20032;-71
2022/03/29 06:48:57;;;;;;;38.38;19.25;;;;;;;;;;5089196;28;20078;-71
2022/03/29 06:51:23;;;;;;;32.50;18.38;;;;;;;;;;5087540;28;20119;-71
2022/03/29 06:53:49;;;;;;;35.55;18.85;;;;;;;;;;5079179;28;20035;-71
2022/03/29 06:56:17;;;;;;;39.25;19.02;;;;;;;;;;5087186;28;20052;-71
2022/03/29 06:58:46;;;;;;;36.30;19.40;;;;;;;;;;5069682;28;20028;-70
2022/03/29 07:01:11;;;;;;;34.03;17.63;;;;;;;;;;5085007;28;20510;-71
2022/03/29 07:03:37;;;;;;;38.20;18.17;;;;;;;;;;5078577;28;20024;-73
2022/03/29 07:06:07;;;;;;;40.88;17.90;;;;;;;;;;5074639;28;20031;-71
2022/03/29 07:08:33;;;;;;;34.75;17.92;;;;;;;;;;5083529;28;20044;-71
2022/03/29 07:11:19;;;;;;;33.55;17.17;;;;;;;;;;5086956;28;20028;-72
2022/03/29 07:13:45;;;;;;;36.08;16.50;;;;;;;;;;5076789;28;20040;-71
2022/03/29 07:16:17;;;;;;;30.60;15.07;;;;;;;;;;5086951;28;20035;-71
2022/03/29 07:18:43;;;;;;;27.20;14.43;;;;;;;;;;5076887;28;20032;-70
2022/03/29 07:21:10;;;;;;;30.67;14.65;;;;;;;;;;5088569;28;20032;-70
2022/03/29 07:23:36;;;;;;;33.20;15.02;;;;;;;;;;5081978;28;20025;-71
2022/03/29 07:26:02;;;;;;;38.25;15.07;;;;;;;;;;5074735;28;20035;-70
2022/03/29 07:28:28;;;;;;;34.47;15.02;;;;;;;;;;5079727;28;20037;-71
2022/03/29 07:30:54;;;;;;;32.78;16.08;;;;;;;;;;5091879;28;20022;-71
2022/03/29 07:33:20;;;;;;;29.75;14.40;;;;;;;;;;5086755;28;20028;-70
2022/03/29 07:35:47;;;;;;;28.52;14.30;;;;;;;;;;5092125;28;20036;-70
2022/03/29 07:38:13;;;;;;;32.25;14.25;;;;;;;;;;5078150;28;20056;-70
2022/03/29 07:40:40;;;;;;;33.65;14.63;;;;;;;;;;5077903;28;20032;-70
2022/03/29 07:43:08;;;;;;;26.02;14.10;;;;;;;;;;5083154;28;20470;-70
2022/03/29 07:45:34;;;;;;;25.75;13.75;;;;;;;;;;5083318;28;20038;-70
2022/03/29 07:48:02;;;;;;;32.53;14.23;;;;;;;;;;5086404;28;20020;-71
2022/03/29 07:50:28;;;;;;;28.80;14.10;;;;;;;;;;5090111;28;20031;-70
2022/03/29 07:52:57;;;;;;;30.80;13.52;;;;;;;;;;5091954;28;20020;-71
2022/03/29 07:55:24;;;;;;;26.77;12.75;;;;;;;;;;5087363;28;20120;-70
2022/03/29 07:57:50;;;;;;;26.00;12.77;;;;;;;;;;5079677;28;20028;-71
2022/03/29 08:00:31;;;;;;;27.17;13.25;;;;;;;;;;5086968;28;20036;-70
2022/03/29 08:02:58;;;;;;;;;;;;;;;;;;5092225;28;20034;-70
2022/03/29 08:05:24;;;;;;;25.33;11.35;;;;;;;;;;5077794;28;19952;-70
2022/03/29 08:07:50;;;;;;;25.67;12.23;;;;;;;;;;5085171;28;20062;-70
2022/03/29 08:10:17;;;;;;;22.63;10.80;;;;;;;;;;5088825;28;20036;-71
2022/03/29 08:12:43;;;;;;;25.65;10.45;;;;;;;;;;5080038;28;20390;-71
2022/03/29 08:15:15;;;;;;;19.80;10.93;;;;;;;;;;5084643;28;20032;-70
2022/03/29 08:17:41;;;;;;;25.70;10.50;;;;;;;;;;5081790;28;20055;-71
2022/03/29 08:20:08;;;;;;;26.58;11.05;;;;;;;;;;5092644;28;20478;-71
2022/03/29 08:22:34;;;;;;;22.85;9.75;;;;;;;;;;5083800;28;20167;-71
2022/03/29 08:25:00;;;;;;;30.02;11.88;;;;;;;;;;5088641;28;20081;-70
2022/03/29 08:27:26;;;;;;;20.83;10.75;;;;;;;;;;5088594;28;20130;-70
2022/03/29 08:29:52;;;;;;;18.67;10.70;;;;;;;;;;5090106;28;20116;-70
2022/03/29 08:32:18;;;;;;;24.90;10.95;;;;;;;;;;5083959;28;20021;-70
2022/03/29 08:34:44;;;;;;;20.75;10.68;;;;;;;;;;5086009;28;20036;-71
2022/03/29 08:37:10;;;;;;;20.45;10.50;;;;;;;;;;5089219;28;20126;-70
2022/03/29 08:39:37;;;;;;;21.88;9.98;;;;;;;;;;5089851;28;20157;-70
2022/03/29 08:42:06;;;;;;;18.90;11.20;;;;;;;;;;5082951;28;20103;-70
2022/03/29 08:44:33;;;;;;;21.85;9.98;;;;;;;;;;5089751;28;20035;-71
2022/03/29 08:46:58;;;;;;;23.92;10.60;;;;;;;;;;5082531;28;20020;-70
2022/03/29 08:49:25;;;;;;;24.13;10.80;;;;;;;;;;5079774;28;20027;-71
2022/03/29 08:51:50;;;;;;;21.45;10.77;;;;;;;;;;5084218;28;20039;-71
2022/03/29 08:54:19;;;;;;;21.75;10.13;;;;;;;;;;5080935;28;20020;-70
2022/03/29 08:56:44;;;;;;;24.88;11.57;;;;;;;;;;5084452;28;20433;-71
2022/03/29 08:59:10;;;;;;;21.55;10.60;;;;;;;;;;5083602;28;20054;-70
2022/03/29 09:01:37;;;;;;;19.63;10.38;;;;;;;;;;5081821;28;20054;-70
2022/03/29 09:04:07;;;;;;;21.52;11.05;;;;;;;;;;5090761;28;20012;-71
2022/03/29 09:06:33;;;;;;;22.60;10.93;;;;;;;;;;5089648;28;20118;-70
2022/03/29 09:08:59;;;;;;;23.52;10.98;;;;;;;;;;5080379;28;20318;-70
2022/03/29 09:11:25;;;;;;;19.25;10.20;;;;;;;;;;5079973;28;20454;-70
2022/03/29 09:14:04;;;;;;;19.55;8.93;;;;;;;;;;5082531;28;20024;-70
2022/03/29 09:16:31;;;;;;;19.42;10.10;;;;;;;;;;5084498;28;20445;-69
2022/03/29 09:18:57;;;;;;;18.95;9.65;;;;;;;;;;5084928;28;20032;-68
2022/03/29 09:21:24;;;;;;;21.30;10.02;;;;;;;;;;5083204;28;20028;-68
2022/03/29 09:24:10;;;;;;;22.90;10.60;;;;;;;;;;5080440;28;20035;-68
2022/03/29 09:26:39;;;;;;;21.60;11.75;;;;;;;;;;5080944;28;20032;-69
2022/03/29 09:29:12;;;;;;;22.40;11.43;;;;;;;;;;5079173;28;20028;-69
2022/03/29 09:31:39;;;;;;;21.05;10.88;;;;;;;;;;5084066;28;20039;-69
2022/03/29 09:34:18;;;;;;;21.67;12.65;;;;;;;;;;5076887;28;20043;-69
2022/03/29 09:36:50;;;;;;;24.00;12.57;;;;;;;;;;5086074;28;20015;-69
2022/03/29 09:39:34;;;;;;;23.80;12.88;;;;;;;;;;5086462;28;20466;-69
2022/03/29 09:42:01;;;;;;;24.25;11.75;;;;;;;;;;5080615;28;20038;-70
2022/03/29 09:44:33;;;;;;;20.63;12.48;;;;;;;;;;5070931;28;20075;-70
2022/03/29 09:47:04;;;;;;;29.58;12.77;;;;;;;;;;5078368;28;20119;-69
2022/03/29 09:49:30;;;;;;;24.07;12.63;;;;;;;;;;5089039;28;20035;-69
2022/03/29 09:52:08;;;;;;;23.30;12.57;;;;;;;;;;5083131;28;20368;-70
2022/03/29 09:54:34;;;;;;;23.42;11.98;;;;;;;;;;5075395;28;20115;-69
2022/03/29 09:57:00;;;;;;;20.77;11.30;;;;;;;;;;5087964;28;20426;-70
2022/03/29 09:59:26;;;;;;;25.58;11.90;;;;;;;;;;5076827;28;20025;-69
2022/03/29 10:01:55;;;;;;;23.40;12.30;;;;;;;;;;5076428;28;20020;-70
2022/03/29 10:04:21;;;;;;;18.48;10.82;;;;;;;;;;5071158;28;20486;-69
2022/03/29 10:06:48;;;;;;;23.58;11.40;;;;;;;;;;5080897;28;20032;-68
2022/03/29 10:09:25;;;;;;;23.73;11.10;;;;;;;;;;5083892;28;20050;-69
2022/03/29 10:11:52;;;;;;;30.05;11.85;;;;;;;;;;5084907;28;20081;-69
2022/03/29 10:14:21;;;;;;;21.25;11.35;;;;;;;;;;5076026;28;20115;-69
2022/03/29 10:16:47;;;;;;;15.77;9.27;;;;;;;;;;5088153;28;20036;-69
2022/03/29 10:19:13;;;;;;;18.17;9.43;;;;;;;;;;5072376;28;20497;-69
2022/03/29 10:21:41;;;;;;;20.45;9.85;;;;;;;;;;5083451;28;20526;-70
2022/03/29 10:24:07;;;;;;;18.15;8.93;;;;;;;;;;5083795;28;20024;-71
2022/03/29 10:26:34;;;;;;;20.02;10.95;;;;;;;;;;5087300;28;20032;-70
2022/03/29 10:29:00;;;;;;;22.85;11.02;;;;;;;;;;5077082;28;20027;-72
2022/03/29 10:31:27;;;;;;;19.95;10.00;;;;;;;;;;5089573;28;20180;-71
2022/03/29 10:34:12;;;;;;;20.10;9.48;;;;;;;;;;5081453;28;20065;-70
2022/03/29 10:36:57;;;;;;;19.77;9.57;;;;;;;;;;5074764;28;20016;-70
2022/03/29 10:39:22;;;;;;;19.33;9.27;;;;;;;;;;5089404;28;20059;-70
2022/03/29 10:41:49;;;;;;;17.80;9.38;;;;;;;;;;5075175;28;20063;-71
2022/03/29 10:44:15;;;;;;;25.55;8.80;;;;;;;;;;5078795;28;20044;-71
2022/03/29 10:46:43;;;;;;;16.15;9.35;;;;;;;;;;5085538;28;20513;-70
2022/03/29 10:49:24;;;;;;;15.38;7.72;;;;;;;;;;5089014;28;20020;-70
2022/03/29 10:51:58;;;;;;;14.73;8.23;;;;;;;;;;5088625;28;20016;-71
2022/03/29 10:54:25;;;;;;;14.27;8.85;;;;;;;;;;5088929;28;20028;-71
2022/03/29 10:56:56;;;;;;;15.10;8.27;;;;;;;;;;5074746;28;20749;-71
2022/03/29 10:59:22;;;;;;;15.18;8.10;;;;;;;;;;5083015;28;20043;-71
2022/03/29 11:02:06;;;;;;;17.75;7.82;;;;;;;;;;5087892;28;20023;-71
2022/03/29 11:04:32;;;;;;;11.50;6.93;;;;;;;;;;5088597;28;20490;-71
2022/03/29 11:07:07;;;;;;;16.17;7.95;;;;;;;;;;5084849;28;20032;-71
2022/03/29 11:09:36;;;;;;;13.75;7.28;;;;;;;;;;5092838;28;20040;-71
2022/03/29 11:12:03;;;;;;;15.52;7.13;;;;;;;;;;5091192;28;20028;-71
2022/03/29 11:14:29;;;;;;;13.65;6.18;;;;;;;;;;5085084;28;20032;-71
2022/03/29 11:16:56;;;;;;;14.57;5.82;;;;;;;;;;5090481;28;20035;-71
2022/03/29 11:19:43;;;;;;;14.02;5.28;;;;;;;;;;5082085;28;20032;-70
2022/03/29 11:22:24;;;;;;;11.50;5.28;;;;;;;;;;5074134;28;20487;-71
2022/03/29 11:24:51;;;;;;;15.05;6.03;;;;;;;;;;5087600;28;20099;-70
2022/03/29 11:27:24;;;;;;;9.23;4.78;;;;;;;;;;5080410;28;20077;-71
2022/03/29 11:29:51;;;;;;;10.23;5.00;;;;;;;;;;5086847;28;20107;-71
2022/03/29 11:32:17;;;;;;;13.32;5.15;;;;;;;;;;5087993;28;20020;-71
2022/03/29 11:34:44;;;;;;;10.07;4.85;;;;;;;;;;5086517;28;20031;-71
2022/03/29 11:37:25;;;;;;;8.70;4.63;;;;;;;;;;5078621;28;20099;-71
2022/03/29 11:39:51;;;;;;;8.27;4.38;;;;;;;;;;5082872;28;20546;-71
2022/03/29 11:42:17;;;;;;;7.55;3.65;;;;;;;;;;5079878;28;20111;-71
2022/03/29 11:44:46;;;;;;;9.60;4.32;;;;;;;;;;5086721;28;20020;-72
2022/03/29 11:47:12;;;;;;;19.42;4.85;;;;;;;;;;5075462;28;20028;-71
2022/03/29 11:49:39;;;;;;;12.10;4.82;;;;;;;;;;5073729;28;20031;-71
2022/03/29 11:52:08;;;;;;;11.88;4.80;;;;;;;;;;5078048;28;20119;-71
2022/03/29 11:54:48;;;;;;;8.85;4.10;;;;;;;;;;5069452;28;20025;-71
2022/03/29 11:57:24;;;;;;;9.48;4.07;;;;;;;;;;5077824;28;20063;-72
2022/03/29 11:59:50;;;;;;;8.73;3.90;;;;;;;;;;5076155;28;20027;-71
2022/03/29 12:02:22;;;;;;;9.07;3.75;;;;;;;;;;5077437;28;20048;-72
2022/03/29 12:04:49;;;;;;;13.30;3.95;;;;;;;;;;5082211;28;20111;-73
2022/03/29 12:07:15;;;;;;;12.40;4.15;;;;;;;;;;5083984;28;20522;-72
2022/03/29 12:09:48;;;;;;;12.32;4.35;;;;;;;;;;5074117;28;20094;-72
2022/03/29 12:12:14;;;;;;;10.00;3.35;;;;;;;;;;5078121;28;20446;-72
2022/03/29 12:14:40;;;;;;;14.77;4.32;;;;;;;;;;5085145;28;20352;-72
2022/03/29 12:17:08;;;;;;;12.52;4.18;;;;;;;;;;5086355;28;20028;-73
2022/03/29 12:19:34;;;;;;;7.22;3.58;;;;;;;;;;5091019;28;20107;-72
2022/03/29 12:22:02;;;;;;;7.95;2.80;;;;;;;;;;5082083;28;20040;-71
2022/03/29 12:24:32;;;;;;;16.95;4.50;;;;;;;;;;5091280;28;20032;-71
2022/03/29 12:27:02;;;;;;;8.90;3.13;;;;;;;;;;5090969;28;20029;-72
2022/03/29 12:29:29;;;;;;;7.85;3.03;;;;;;;;;;5079751;28;20036;-71
2022/03/29 12:31:56;;;;;;;7.35;3.10;;;;;;;;;;5085262;28;20036;-72
2022/03/29 12:34:23;;;;;;;9.18;2.70;;;;;;;;;;5087977;28;20039;-71
2022/03/29 12:36:50;;;;;;;6.50;2.70;;;;;;;;;;5073358;28;20537;-72
2022/03/29 12:39:16;;;;;;;7.30;2.30;;;;;;;;;;5077591;28;20479;-72
2022/03/29 12:41:51;;;;;;;9.82;3.08;;;;;;;;;;5074543;28;20024;-72
2022/03/29 12:44:27;;;;;;;9.57;2.65;;;;;;;;;;5087970;28;20051;-72
2022/03/29 12:46:53;;;;;;;9.23;2.80;;;;;;;;;;5079697;28;20085;-72
2022/03/29 12:49:19;;;;;;;7.35;2.30;;;;;;;;;;5079406;28;20382;-73
2022/03/29 12:51:51;;;;;;;7.97;2.78;;;;;;;;;;5087781;28;20028;-73
2022/03/29 12:54:17;;;;;;;8.98;2.35;;;;;;;;;;5083932;28;20071;-77
2022/03/29 12:56:45;;;;;;;10.68;2.47;;;;;;;;;;5075482;28;20066;-72
2022/03/29 12:59:37;;;;;;;6.68;2.40;;;;;;;;;;5084997;28;20035;-68
2022/03/29 13:02:16;;;;;;;7.25;1.90;;;;;;;;;;5080434;28;20025;-70
2022/03/29 13:04:48;;;;;;;6.38;2.20;;;;;;;;;;5081453;28;20546;-71
2022/03/29 13:07:33;;;;;;;4.57;1.92;;;;;;;;;;5071578;28;20137;-72
2022/03/29 13:10:06;;;;;;;7.18;2.47;;;;;;;;;;5077043;28;20075;-73
2022/03/29 13:12:50;;;;;;;6.65;2.00;;;;;;;;;;5080777;28;20027;-73
2022/03/29 13:15:36;;;;;;;5.90;1.85;;;;;;;;;;5078201;28;20107;-72
2022/03/29 13:18:02;;;;;;;9.02;2.05;;;;;;;;;;5080753;28;20021;-72
2022/03/29 13:20:28;;;;;;;5.13;1.80;;;;;;;;;;5080096;28;20123;-71
2022/03/29 13:22:54;;;;;;;4.85;1.85;;;;;;;;;;5085347;28;20124;-71
2022/03/29 13:25:34;;;;;;;4.90;1.63;;;;;;;;;;5086457;28;20054;-71
2022/03/29 13:28:00;;;;;;;6.75;2.03;;;;;;;;;;5086983;28;20027;-73
2022/03/29 13:30:25;;;;;;;6.03;1.70;;;;;;;;;;5083212;28;20024;-73
2022/03/29 13:32:52;;;;;;;6.15;1.70;;;;;;;;;;5081343;28;20407;-73
2022/03/29 13:35:18;;;;;;;9.00;2.13;;;;;;;;;;5084752;28;20040;-70
2022/03/29 13:37:45;;;;;;;6.07;2.03;;;;;;;;;;5087635;28;20111;-72
2022/03/29 13:40:12;;;;;;;5.28;1.58;;;;;;;;;;5085375;28;20036;-72
2022/03/29 13:42:37;;;;;;;9.48;2.20;;;;;;;;;;5085797;28;20028;-73
2022/03/29 13:45:03;;;;;;;3.85;1.63;;;;;;;;;;5080105;28;20093;-73
2022/03/29 13:47:29;;;;;;;8.52;2.03;;;;;;;;;;5085414;28;20028;-71
2022/03/29 13:49:55;;;;;;;5.20;1.63;;;;;;;;;;5079424;28;20079;-71
2022/03/29 13:52:22;;;;;;;9.45;1.63;;;;;;;;;;5081987;28;20434;-70
2022/03/29 13:54:47;;;;;;;4.95;1.83;;;;;;;;;;5074695;28;20541;-72
2022/03/29 13:57:13;;;;;;;13.25;2.28;;;;;;;;;;5084693;28;20020;-72
2022/03/29 13:59:40;;;;;;;6.13;1.63;;;;;;;;;;5080699;28;20031;-72
2022/03/29 14:02:06;;;;;;;5.40;1.38;;;;;;;;;;5076890;28;20566;-74
2022/03/29 14:04:32;;;;;;;7.15;1.90;;;;;;;;;;5079589;28;20118;-72
2022/03/29 14:07:00;;;;;;;5.95;1.90;;;;;;;;;;5083269;28;20103;-70
2022/03/29 14:09:26;;;;;;;4.95;1.40;;;;;;;;;;5079892;28;20052;-72
2022/03/29 14:11:52;;;;;;;5.22;1.80;;;;;;;;;;5074409;28;20031;-72
2022/03/29 14:14:18;;;;;;;7.22;1.55;;;;;;;;;;5073523;28;20054;-71
2022/03/29 14:16:44;;;;;;;6.57;2.40;;;;;;;;;;5082112;28;20047;-72
2022/03/29 14:19:13;;;;;;;5.82;1.90;;;;;;;;;;5085534;28;20028;-72
2022/03/29 14:21:39;;;;;;;4.25;1.70;;;;;;;;;;5083229;28;20032;-71
2022/03/29 14:24:08;;;;;;;5.75;1.60;;;;;;;;;;5076858;28;20031;-72
2022/03/29 14:26:34;;;;;;;5.15;1.45;;;;;;;;;;5079443;28;20032;-71
2022/03/29 14:29:00;;;;;;;7.78;1.70;;;;;;;;;;5083070;28;20532;-71
2022/03/29 14:31:26;;;;;;;4.03;1.60;;;;;;;;;;5079404;28;20031;-72
2022/03/29 14:33:55;;;;;;;3.78;1.40;;;;;;;;;;5074194;28;20550;-70